Time;durP1;ratioP1;P1;durP2;ratioP2;P2;SDS_P1;SDS_P2;PMS_P1;PMS_P2;Temp;Humidity;BMP_temperature;BMP_pressure;BME280_temperature;BME280_humidity;BME280_pressure;Samples;Min_cycle;Max_cycle;Signal;HPM_P1;HPM_P2
2024/04/21 00:01:20;;;;;;;5.45;2.30;;;;;;;8.77;59.67;99100.34;5416307;26;20050;-65
2024/04/21 00:03:48;;;;;;;7.80;2.85;;;;;;;8.76;60.00;99096.03;5454885;26;19995;-65
2024/04/21 00:06:15;;;;;;;4.65;2.35;;;;;;;8.78;60.01;99093.00;5401884;26;20071;-65
2024/04/21 00:08:42;;;;;;;6.10;2.63;;;;;;;8.75;59.66;99085.47;5416415;26;20603;-65
2024/04/21 00:11:09;;;;;;;8.93;3.00;;;;;;;8.71;60.00;99093.47;5414903;26;20050;-66
2024/04/21 00:13:36;;;;;;;6.05;1.90;;;;;;;8.71;59.92;99087.22;5416381;26;19995;-65
2024/04/21 00:16:03;;;;;;;3.20;1.98;;;;;;;8.73;59.79;99084.97;5416694;26;19995;-65
2024/04/21 00:18:30;;;;;;;5.35;2.05;;;;;;;8.69;60.04;99082.13;5416098;26;20329;-65
2024/04/21 00:20:57;;;;;;;4.15;2.55;;;;;;;8.65;59.97;99077.66;5413966;26;19996;-65
2024/04/21 00:23:23;;;;;;;5.82;2.13;;;;;;;8.63;60.13;99086.13;5414411;26;19999;-65
2024/04/21 00:25:59;;;;;;;6.53;2.50;;;;;;;8.64;60.10;99079.56;5414000;26;20015;-65
2024/04/21 00:28:29;;;;;;;8.00;2.20;;;;;;;8.71;60.14;99076.34;5414369;26;19996;-65
2024/04/21 00:30:57;;;;;;;4.13;1.98;;;;;;;8.71;59.77;99077.16;5415875;26;20355;-65
2024/04/21 00:33:24;;;;;;;4.53;2.08;;;;;;;8.67;59.71;99064.53;5418369;26;19992;-65
2024/04/21 00:35:51;;;;;;;9.35;2.15;;;;;;;8.61;59.66;99069.34;5422109;26;20448;-65
2024/04/21 00:38:17;;;;;;;6.65;2.05;;;;;;;8.62;59.70;99064.69;5415693;26;19996;-65
2024/04/21 00:40:44;;;;;;;6.25;2.50;;;;;;;8.60;59.69;99061.50;5415783;26;20035;-65
2024/04/21 00:43:11;;;;;;;5.35;2.83;;;;;;;8.58;60.42;99056.41;5414274;26;20022;-65
2024/04/21 00:45:45;;;;;;;6.90;2.20;;;;;;;8.56;60.20;99057.84;5415736;26;20039;-65
2024/04/21 00:48:13;;;;;;;6.53;2.38;;;;;;;8.56;60.00;99060.56;5415519;26;20497;-65
2024/04/21 00:50:46;;;;;;;4.97;2.17;;;;;;;8.50;60.21;99051.75;5383985;26;20010;-63
2024/04/21 00:53:16;;;;;;;6.95;2.42;;;;;;;8.49;60.77;99050.16;5413888;26;20525;-64
2024/04/21 00:55:43;;;;;;;5.25;2.30;;;;;;;8.49;60.50;99047.44;5415589;26;20011;-64
2024/04/21 00:58:11;;;;;;;6.13;2.15;;;;;;;8.51;60.90;99047.91;5413928;26;20008;-64
2024/04/21 01:00:38;;;;;;;5.20;2.10;;;;;;;8.49;60.42;99034.66;5413273;26;20012;-64
2024/04/21 01:03:05;;;;;;;6.20;2.70;;;;;;;8.43;61.01;99035.16;5415375;26;19996;-64
2024/04/21 01:05:32;;;;;;;5.30;2.20;;;;;;;8.42;60.97;99039.78;5426586;26;20015;-64
2024/04/21 01:07:59;;;;;;;6.47;2.50;;;;;;;8.41;61.06;99032.75;5415591;26;20054;-63
2024/04/21 01:10:26;;;;;;;7.07;2.58;;;;;;;8.39;61.25;99029.56;5414895;26;19996;-64
2024/04/21 01:12:53;;;;;;;9.75;3.15;;;;;;;8.47;61.33;99025.22;5415873;26;19995;-64
2024/04/21 01:15:20;;;;;;;8.40;2.60;;;;;;;8.47;61.11;99026.03;5415510;26;20004;-64
2024/04/21 01:17:46;;;;;;;4.32;2.28;;;;;;;8.49;61.29;99021.06;5415273;26;19996;-64
2024/04/21 01:20:15;;;;;;;6.32;2.67;;;;;;;8.48;60.99;99019.47;5413236;26;20031;-65
2024/04/21 01:22:45;;;;;;;5.45;2.35;;;;;;;8.50;60.95;99025.38;5415991;26;20010;-63
2024/04/21 01:25:12;;;;;;;7.72;2.47;;;;;;;8.46;60.79;99018.19;5418651;26;20344;-63
2024/04/21 01:27:39;;;;;;;8.93;2.50;;;;;;;8.44;61.34;99015.00;5418874;26;20004;-64
2024/04/21 01:30:06;;;;;;;6.95;2.78;;;;;;;8.43;61.23;99018.84;5418297;26;20329;-64
2024/04/21 01:32:33;;;;;;;4.45;2.20;;;;;;;8.41;61.22;99016.44;5416802;26;20007;-64
2024/04/21 01:35:00;;;;;;;3.25;2.00;;;;;;;8.38;61.37;99016.28;5429216;26;20019;-65
2024/04/21 01:37:28;;;;;;;5.35;2.00;;;;;;;8.33;61.13;99019.91;5418486;26;20011;-64
2024/04/21 01:39:55;;;;;;;3.80;1.83;;;;;;;8.33;61.62;99030.78;5419054;26;20011;-64
2024/04/21 01:42:22;;;;;;;2.95;1.52;;;;;;;8.20;60.56;99059.75;5418271;26;20011;-65
2024/04/21 01:44:49;;;;;;;2.88;1.30;;;;;;;7.73;60.92;99066.84;5418756;26;20000;-65
2024/04/21 01:47:16;;;;;;;4.07;1.45;;;;;;;7.26;61.60;99074.69;5418433;26;20418;-65
2024/04/21 01:49:44;;;;;;;3.42;1.02;;;;;;;6.91;61.28;99070.19;5387121;26;20004;-65
2024/04/21 01:52:11;;;;;;;5.82;1.30;;;;;;;6.72;61.52;99064.97;5416372;26;19999;-65
2024/04/21 01:54:38;;;;;;;3.08;1.42;;;;;;;6.52;61.84;99046.53;5418225;26;20000;-64
2024/04/21 01:57:05;;;;;;;4.35;1.80;;;;;;;6.33;61.88;99047.50;5418357;26;20072;-65
2024/04/21 01:59:31;;;;;;;3.40;1.10;;;;;;;6.32;62.16;99042.38;5416693;26;20002;-65
2024/04/21 02:01:58;;;;;;;5.03;1.63;;;;;;;6.45;62.33;99038.81;5416445;26;19996;-65
2024/04/21 02:04:25;;;;;;;5.68;1.85;;;;;;;6.55;62.06;99037.78;5428817;26;20018;-65
2024/04/21 02:06:53;;;;;;;7.75;2.08;;;;;;;6.66;61.82;99031.78;5418365;26;20015;-64
2024/04/21 02:09:19;;;;;;;7.75;1.70;;;;;;;6.72;61.63;99027.03;5418236;26;20009;-66
2024/04/21 02:11:46;;;;;;;2.83;1.05;;;;;;;6.79;61.64;99032.00;5418371;26;19995;-64
2024/04/21 02:14:13;;;;;;;5.72;1.20;;;;;;;6.88;61.44;99032.84;5419012;26;19999;-64
2024/04/21 02:16:40;;;;;;;8.32;1.42;;;;;;;6.86;61.01;99035.06;5418736;26;20058;-64
2024/04/21 02:19:08;;;;;;;3.55;1.30;;;;;;;6.88;61.42;99038.25;5416131;26;20014;-64
2024/04/21 02:21:36;;;;;;;4.97;1.55;;;;;;;6.86;61.36;99030.44;5417680;26;20028;-64
2024/04/21 02:24:03;;;;;;;5.07;1.27;;;;;;;6.88;60.99;99030.13;5417723;26;20076;-65
2024/04/21 02:26:29;;;;;;;7.55;1.67;;;;;;;6.83;60.97;99027.56;5417866;26;20007;-65
2024/04/21 02:28:56;;;;;;;7.07;1.80;;;;;;;6.87;61.32;99018.50;5418261;26;19996;-65
2024/04/21 02:31:23;;;;;;;6.78;1.63;;;;;;;6.94;61.10;99024.28;5416040;26;19995;-65
2024/04/21 02:33:49;;;;;;;3.88;1.60;;;;;;;6.95;61.26;99025.09;5428050;26;20007;-66
2024/04/21 02:36:16;;;;;;;7.05;1.48;;;;;;;6.97;61.25;99025.56;5416388;26;20482;-67
2024/04/21 02:38:43;;;;;;;4.20;1.25;;;;;;;6.98;61.12;99029.88;5417761;26;20008;-65
2024/04/21 02:41:10;;;;;;;10.18;1.48;;;;;;;6.98;61.01;99030.66;5417375;26;20007;-66
2024/04/21 02:43:36;;;;;;;7.88;1.73;;;;;;;7.01;61.24;99026.53;5417689;26;20010;-65
2024/04/21 02:46:04;;;;;;;8.55;2.42;;;;;;;7.03;61.27;99032.44;5417714;26;19995;-65
2024/04/21 02:48:32;;;;;;;6.22;1.67;;;;;;;7.02;61.24;99028.13;5417290;26;20011;-65
2024/04/21 02:50:59;;;;;;;9.05;1.85;;;;;;;7.04;61.08;99027.81;5417550;26;20457;-65
2024/04/21 02:53:26;;;;;;;7.80;2.55;;;;;;;7.05;61.19;99024.00;5415939;26;20018;-67
2024/04/21 02:55:53;;;;;;;6.70;1.80;;;;;;;7.03;61.02;99029.72;5417825;26;20007;-67
2024/04/21 02:58:20;;;;;;;8.32;1.95;;;;;;;7.03;61.31;99020.81;5417882;26;20039;-65
2024/04/21 03:00:46;;;;;;;7.63;2.60;;;;;;;7.09;61.59;99016.84;5417194;26;19996;-65
2024/04/21 03:03:13;;;;;;;7.25;2.45;;;;;;;7.12;61.15;99022.44;5417396;26;20007;-65
2024/04/21 03:05:40;;;;;;;6.32;2.30;;;;;;;7.13;61.47;99017.81;5447303;26;19999;-65
2024/04/21 03:08:07;;;;;;;6.35;2.30;;;;;;;7.17;61.12;99019.59;5432000;26;20024;-65
2024/04/21 03:10:34;;;;;;;6.75;2.38;;;;;;;7.17;61.04;99019.59;5429642;26;19991;-64
2024/04/21 03:13:01;;;;;;;8.70;2.42;;;;;;;7.11;61.07;99012.72;5432730;26;20010;-65
2024/04/21 03:15:27;;;;;;;4.80;2.55;;;;;;;7.09;61.45;99014.16;5433557;26;19999;-65
2024/04/21 03:17:54;;;;;;;10.23;2.90;;;;;;;7.08;61.05;99002.50;5396366;26;934130;-64
2024/04/21 03:20:21;;;;;;;6.05;2.20;;;;;;;7.07;61.22;99009.03;5426191;26;20115;-64
2024/04/21 03:22:47;;;;;;;6.63;2.33;;;;;;;6.93;61.39;99003.72;5420520;26;20053;-64
2024/04/21 03:25:14;;;;;;;7.55;2.03;;;;;;;7.01;61.49;98999.44;5421202;26;20006;-64
2024/04/21 03:27:41;;;;;;;7.78;2.63;;;;;;;7.08;61.59;98994.38;5418588;26;20394;-64
2024/04/21 03:30:08;;;;;;;5.45;2.58;;;;;;;7.16;61.45;98993.59;5415406;26;20324;-65
2024/04/21 03:32:35;;;;;;;6.43;2.58;;;;;;;7.17;61.04;98997.09;5415051;26;20004;-65
2024/04/21 03:35:02;;;;;;;5.85;2.70;;;;;;;7.10;60.64;98997.56;5427297;26;20014;-65
2024/04/21 03:37:29;;;;;;;6.32;2.45;;;;;;;7.08;61.09;98997.06;5415266;26;20348;-65
2024/04/21 03:39:56;;;;;;;7.97;2.30;;;;;;;7.12;61.05;98994.53;5416783;26;20011;-65
2024/04/21 03:42:23;;;;;;;9.32;2.80;;;;;;;7.10;60.90;98991.34;5415113;26;20053;-66
2024/04/21 03:44:49;;;;;;;7.18;2.90;;;;;;;7.15;61.09;98992.00;5417141;26;20444;-65
2024/04/21 03:47:16;;;;;;;8.90;2.88;;;;;;;7.22;60.92;98992.31;5413270;26;20000;-66
2024/04/21 03:49:43;;;;;;;7.57;2.83;;;;;;;7.25;60.83;98991.72;5416671;26;20010;-66
2024/04/21 03:52:09;;;;;;;5.07;2.72;;;;;;;7.29;60.93;98981.84;5414589;26;20010;-63
2024/04/21 03:54:36;;;;;;;8.50;3.05;;;;;;;7.32;60.73;98988.53;5416525;26;20463;-64
2024/04/21 03:57:05;;;;;;;13.23;3.08;;;;;;;7.30;60.43;98979.91;5416723;26;20000;-64
2024/04/21 03:59:32;;;;;;;4.60;2.55;;;;;;;7.31;60.49;98984.22;5416499;26;19999;-64
2024/04/21 04:02:00;;;;;;;6.38;2.42;;;;;;;7.29;60.57;98968.28;5414501;26;20192;-64
2024/04/21 04:04:26;;;;;;;7.75;2.65;;;;;;;7.25;60.21;98980.03;5427040;26;20007;-64
2024/04/21 04:06:53;;;;;;;9.20;2.92;;;;;;;7.23;60.51;98988.50;5414692;26;20003;-64
2024/04/21 04:09:20;;;;;;;6.82;3.00;;;;;;;7.25;59.94;98986.28;5474364;26;19999;-64
2024/04/21 04:11:47;;;;;;;6.68;3.13;;;;;;;7.26;60.28;98977.03;5416279;26;20440;-64
2024/04/21 04:14:14;;;;;;;7.90;3.17;;;;;;;7.28;60.35;98984.84;5416405;26;19996;-64
2024/04/21 04:16:41;;;;;;;9.48;3.55;;;;;;;7.29;60.42;98973.69;5416635;26;20076;-64
2024/04/21 04:19:09;;;;;;;14.68;8.48;;;;;;;7.31;60.24;98983.44;5416524;26;20027;-64
2024/04/21 04:21:36;;;;;;;9.25;3.22;;;;;;;7.30;60.65;98982.63;5416210;26;20000;-64
2024/04/21 04:24:03;;;;;;;7.13;3.83;;;;;;;7.29;60.21;98981.84;5474494;26;20285;-64
2024/04/21 04:26:29;;;;;;;5.80;3.30;;;;;;;7.34;60.59;98985.50;5474511;26;20000;-64
2024/04/21 04:28:56;;;;;;;8.32;3.20;;;;;;;7.40;60.04;98976.88;5416039;26;19995;-64
2024/04/21 04:31:23;;;;;;;9.77;3.28;;;;;;;7.41;60.18;98978.50;5415487;26;20000;-64
2024/04/21 04:33:49;;;;;;;6.03;3.00;;;;;;;7.40;59.71;98982.31;5426545;26;20030;-64
2024/04/21 04:36:16;;;;;;;8.85;3.35;;;;;;;7.31;60.08;98984.22;5415902;26;20022;-64
2024/04/21 04:38:43;;;;;;;10.30;3.63;;;;;;;7.30;60.00;98974.50;5414088;26;20007;-64
2024/04/21 04:41:10;;;;;;;11.13;4.20;;;;;;;7.31;60.13;98978.00;5415604;26;19995;-64
2024/04/21 04:43:36;;;;;;;7.05;3.30;;;;;;;7.33;60.22;98973.06;5415908;26;20031;-64
2024/04/21 04:46:04;;;;;;;8.73;3.72;;;;;;;7.31;59.90;98973.38;5415778;26;20015;-64
2024/04/21 04:48:30;;;;;;;9.95;3.40;;;;;;;7.30;60.33;98979.91;5415778;26;20007;-64
2024/04/21 04:51:01;;;;;;;11.88;4.18;;;;;;;7.36;59.96;98985.97;5415357;26;20471;-64
2024/04/21 04:53:27;;;;;;;9.68;3.25;;;;;;;7.39;59.69;98988.06;5416028;26;20006;-64
2024/04/21 04:55:55;;;;;;;7.28;3.50;;;;;;;7.38;60.19;98975.63;5413407;26;20000;-63
2024/04/21 04:58:22;;;;;;;12.65;4.15;;;;;;;7.43;59.93;98978.16;5415208;26;20011;-63
2024/04/21 05:00:49;;;;;;;16.33;3.80;;;;;;;7.43;59.40;98981.69;5415047;26;20004;-63
2024/04/21 05:03:16;;;;;;;12.57;3.78;;;;;;;7.39;59.63;98990.78;5417849;26;20456;-64
2024/04/21 05:05:42;;;;;;;7.05;3.17;;;;;;;7.37;60.16;98982.94;5423682;26;20047;-63
2024/04/21 05:08:09;;;;;;;10.10;4.30;;;;;;;7.39;59.96;98982.63;5442662;26;20011;-63
2024/04/21 05:10:36;;;;;;;11.85;3.47;;;;;;;7.36;60.10;98988.69;5415257;26;19999;-64
2024/04/21 05:13:03;;;;;;;7.82;3.40;;;;;;;7.36;59.98;98985.97;5415784;26;20072;-64
2024/04/21 05:15:30;;;;;;;7.07;3.70;;;;;;;7.31;59.41;98983.44;5474136;26;20347;-63
2024/04/21 05:17:57;;;;;;;6.72;3.40;;;;;;;7.26;59.99;98995.22;5413709;26;20456;-63
2024/04/21 05:20:24;;;;;;;9.30;3.65;;;;;;;7.27;59.95;98994.91;5414909;26;20002;-63
2024/04/21 05:22:51;;;;;;;9.02;4.75;;;;;;;7.17;59.63;98997.09;5415868;26;19996;-63
2024/04/21 05:25:18;;;;;;;14.82;3.63;;;;;;;7.12;60.03;99005.38;5415290;26;20341;-63
2024/04/21 05:27:45;;;;;;;7.47;2.83;;;;;;;7.13;59.73;99005.06;5474309;26;20329;-63
2024/04/21 05:30:12;;;;;;;7.05;2.80;;;;;;;7.15;59.87;99005.53;5416299;26;20352;-64
2024/04/21 05:32:39;;;;;;;7.65;2.90;;;;;;;7.17;59.91;99005.22;5444578;26;20072;-63
2024/04/21 05:35:09;;;;;;;3.95;2.38;;;;;;;7.09;59.63;99012.22;5426035;26;20360;-64
2024/04/21 05:37:35;;;;;;;5.60;2.13;;;;;;;6.85;59.42;99025.34;5414175;26;20011;-63
2024/04/21 05:40:04;;;;;;;5.75;1.83;;;;;;;6.41;59.29;99040.53;5414998;26;20003;-63
2024/04/21 05:42:31;;;;;;;5.47;1.88;;;;;;;6.15;60.60;99026.00;5384050;26;19996;-63
2024/04/21 05:44:57;;;;;;;3.10;1.40;;;;;;;6.01;60.64;99034.16;5415205;26;20069;-64
2024/04/21 05:47:24;;;;;;;8.02;1.80;;;;;;;5.88;61.10;99035.75;5415548;26;20068;-64
2024/04/21 05:49:51;;;;;;;6.10;1.60;;;;;;;5.89;61.44;99031.16;5413653;26;20019;-64
2024/04/21 05:52:18;;;;;;;5.38;1.48;;;;;;;5.86;61.67;99023.66;5414756;26;20004;-64
2024/04/21 05:54:45;;;;;;;5.47;1.77;;;;;;;5.76;61.40;99025.50;5415650;26;19999;-63
2024/04/21 05:57:12;;;;;;;8.02;1.58;;;;;;;5.67;61.35;99018.38;5443607;26;20347;-64
2024/04/21 05:59:39;;;;;;;4.68;1.95;;;;;;;5.57;60.75;99027.50;5415170;26;20032;-64
2024/04/21 06:02:06;;;;;;;5.63;1.73;;;;;;;5.58;61.03;99020.19;5414809;26;19992;-64
2024/04/21 06:04:32;;;;;;;5.00;1.95;;;;;;;5.66;61.05;99023.00;5423764;26;20003;-64
2024/04/21 06:06:59;;;;;;;3.50;1.75;;;;;;;5.73;61.30;99022.56;5414520;26;20011;-64
2024/04/21 06:09:26;;;;;;;6.75;1.80;;;;;;;5.86;61.72;99020.94;5415426;26;20076;-63
2024/04/21 06:11:53;;;;;;;6.68;2.38;;;;;;;6.05;60.83;99016.19;5418207;26;20080;-63
2024/04/21 06:14:20;;;;;;;3.72;1.90;;;;;;;6.12;60.86;99016.56;5418590;26;20019;-64
2024/04/21 06:16:46;;;;;;;7.88;2.03;;;;;;;6.17;60.32;99021.88;5418652;26;19999;-63
2024/04/21 06:19:13;;;;;;;4.65;2.72;;;;;;;6.18;60.68;99015.38;5416866;26;20074;-64
2024/04/21 06:21:41;;;;;;;3.90;2.28;;;;;;;6.24;60.66;99008.72;5418608;26;20023;-63
2024/04/21 06:24:08;;;;;;;6.47;2.40;;;;;;;6.32;60.42;99008.00;5418168;26;20015;-64
2024/04/21 06:26:35;;;;;;;10.55;2.63;;;;;;;6.38;60.52;99017.56;5416414;26;20007;-63
2024/04/21 06:29:04;;;;;;;6.03;2.17;;;;;;;6.49;60.54;99020.03;5418453;26;20006;-64
2024/04/21 06:31:31;;;;;;;5.28;2.67;;;;;;;6.56;60.17;99025.81;5417958;26;19994;-64
2024/04/21 06:33:58;;;;;;;6.57;2.20;;;;;;;6.49;59.32;99026.25;5428548;26;20026;-64
2024/04/21 06:36:25;;;;;;;5.90;2.13;;;;;;;6.47;59.78;99031.16;5432490;26;20472;-64
2024/04/21 06:38:52;;;;;;;5.70;2.33;;;;;;;6.53;59.98;99029.16;5419864;26;19999;-64
2024/04/21 06:41:19;;;;;;;3.90;2.30;;;;;;;6.59;60.12;99030.63;5448626;26;20466;-64
2024/04/21 06:43:46;;;;;;;3.40;2.20;;;;;;;6.53;59.71;99029.94;5449295;26;20023;-63
2024/04/21 06:46:13;;;;;;;9.77;2.50;;;;;;;6.53;60.19;99024.53;5422852;26;19995;-64
2024/04/21 06:48:39;;;;;;;6.55;2.50;;;;;;;6.50;59.89;99032.47;5416859;26;20069;-66
2024/04/21 06:51:06;;;;;;;4.00;2.03;;;;;;;6.39;59.84;99018.38;5421270;26;19996;-64
2024/04/21 06:53:33;;;;;;;3.95;1.90;;;;;;;6.38;60.25;99016.78;5417820;26;20011;-64
2024/04/21 06:56:01;;;;;;;6.38;2.08;;;;;;;6.49;59.68;99006.47;5418889;26;20522;-63
2024/04/21 06:58:28;;;;;;;4.10;2.42;;;;;;;6.66;59.22;99020.94;5419424;26;20014;-65
2024/04/21 07:00:55;;;;;;;8.20;2.50;;;;;;;6.82;59.58;99023.25;5417906;26;19996;-64
2024/04/21 07:03:22;;;;;;;4.28;2.33;;;;;;;6.97;59.01;99023.66;5425353;26;20010;-64
2024/04/21 07:05:49;;;;;;;4.78;2.20;;;;;;;7.30;59.28;99026.03;5424169;26;20048;-63
2024/04/21 07:08:16;;;;;;;4.00;2.08;;;;;;;7.73;58.48;99009.84;5385760;26;20015;-63
2024/04/21 07:10:43;;;;;;;4.95;1.90;;;;;;;8.01;57.47;99009.56;5380098;26;20403;-64
2024/04/21 07:13:11;;;;;;;5.57;2.28;;;;;;;8.23;57.71;99009.41;5409875;26;20265;-64
2024/04/21 07:15:38;;;;;;;4.57;2.30;;;;;;;8.43;57.51;99014.19;5409538;26;20019;-64
2024/04/21 07:18:05;;;;;;;3.65;1.73;;;;;;;8.58;57.02;99018.34;5381713;26;20010;-64
2024/04/21 07:20:32;;;;;;;4.88;2.40;;;;;;;8.64;56.33;99019.75;5381410;26;20036;-64
2024/04/21 07:22:59;;;;;;;7.28;1.98;;;;;;;8.31;54.93;99024.09;5381818;26;20007;-64
2024/04/21 07:25:26;;;;;;;4.03;1.80;;;;;;;7.94;52.20;99023.59;5381840;26;20352;-65
2024/04/21 07:27:53;;;;;;;3.53;1.65;;;;;;;7.52;54.77;99017.00;5409258;26;20001;-65
2024/04/21 07:30:19;;;;;;;10.93;2.35;;;;;;;7.52;55.19;99022.41;5381476;26;19996;-65
2024/04/21 07:32:46;;;;;;;4.68;1.90;;;;;;;7.63;55.10;99033.78;5439384;26;20010;-65
2024/04/21 07:35:14;;;;;;;6.85;2.15;;;;;;;7.56;54.10;99024.19;5422823;26;20003;-66
2024/04/21 07:37:41;;;;;;;5.72;2.45;;;;;;;7.37;54.34;99031.78;5416791;26;20013;-65
2024/04/21 07:40:08;;;;;;;6.72;2.42;;;;;;;7.26;54.79;99027.78;5416703;26;20035;-65
2024/04/21 07:42:35;;;;;;;6.80;2.55;;;;;;;7.23;54.46;99031.88;5416806;26;20462;-65
2024/04/21 07:45:02;;;;;;;8.00;2.40;;;;;;;7.29;54.97;99030.66;5415220;26;20009;-67
2024/04/21 07:47:29;;;;;;;5.07;2.22;;;;;;;7.39;54.43;99034.19;5445217;26;20011;-65
2024/04/21 07:49:56;;;;;;;4.78;2.47;;;;;;;7.36;54.39;99035.63;5417256;26;19995;-64
2024/04/21 07:52:23;;;;;;;7.28;2.92;;;;;;;7.31;54.86;99029.53;5415049;26;20004;-66
2024/04/21 07:54:50;;;;;;;8.40;2.72;;;;;;;7.35;55.18;99030.50;5416999;26;20000;-65
2024/04/21 07:57:16;;;;;;;6.28;2.88;;;;;;;7.49;54.46;99034.69;5415662;26;20005;-65
2024/04/21 07:59:43;;;;;;;11.52;3.47;;;;;;;7.73;53.97;99033.47;5417520;26;20520;-66
2024/04/21 08:02:10;;;;;;;9.00;3.38;;;;;;;8.11;53.25;99042.63;5415025;26;20011;-65
2024/04/21 08:04:37;;;;;;;6.88;2.65;;;;;;;8.44;52.44;99039.47;5427232;26;20019;-66
2024/04/21 08:07:04;;;;;;;6.82;2.40;;;;;;;8.60;51.59;99031.59;5417170;26;20057;-65
2024/04/21 08:09:30;;;;;;;8.13;3.13;;;;;;;8.61;51.41;99033.22;5417433;26;20006;-66
2024/04/21 08:11:57;;;;;;;4.30;2.33;;;;;;;8.63;50.73;99031.75;5416367;26;20003;-66
2024/04/21 08:14:24;;;;;;;7.75;2.60;;;;;;;8.53;49.90;99034.00;5417002;26;20000;-66
2024/04/21 08:16:51;;;;;;;7.72;2.70;;;;;;;8.30;50.08;99034.16;5416369;26;20076;-65
2024/04/21 08:19:18;;;;;;;6.28;2.45;;;;;;;8.10;50.32;99030.16;5415046;26;20452;-66
2024/04/21 08:21:46;;;;;;;11.00;3.45;;;;;;;8.03;50.63;99034.47;5414478;26;20054;-66
2024/04/21 08:24:13;;;;;;;12.55;2.88;;;;;;;8.00;49.98;99022.34;5416218;26;20010;-66
2024/04/21 08:26:40;;;;;;;5.55;2.65;;;;;;;8.01;50.40;99025.84;5416382;26;20000;-66
2024/04/21 08:29:06;;;;;;;6.30;2.40;;;;;;;7.97;49.59;99017.53;5416241;26;20340;-66
2024/04/21 08:31:33;;;;;;;6.80;2.15;;;;;;;7.92;49.42;99020.41;5416379;26;20092;-65
2024/04/21 08:34:00;;;;;;;5.00;2.08;;;;;;;8.07;48.52;99021.84;5413628;26;19996;-65
2024/04/21 08:36:27;;;;;;;5.78;2.00;;;;;;;8.19;48.02;99014.69;5416215;26;20084;-67
2024/04/21 08:38:55;;;;;;;5.85;2.20;;;;;;;8.10;47.79;99015.78;5416131;26;20000;-66
2024/04/21 08:41:23;;;;;;;3.75;1.95;;;;;;;8.22;48.29;99026.81;5444089;26;20068;-65
2024/04/21 08:43:51;;;;;;;4.85;2.25;;;;;;;8.55;47.70;99026.31;5444350;26;20000;-64
2024/04/21 08:46:18;;;;;;;7.32;2.47;;;;;;;8.81;46.41;99008.03;5414351;26;20014;-64
2024/04/21 08:48:47;;;;;;;4.65;2.00;;;;;;;8.96;46.60;99015.69;5413903;26;20037;-64
2024/04/21 08:51:15;;;;;;;14.00;6.50;;;;;;;9.06;45.99;99015.31;5413792;26;19996;-65
2024/04/21 08:53:41;;;;;;;5.70;2.10;;;;;;;8.91;45.42;99018.56;5415623;26;20062;-65
2024/04/21 08:56:17;;;;;;;7.07;3.90;;;;;;;8.74;46.15;99024.06;5415483;26;20004;-64
2024/04/21 08:58:50;;;;;;;5.35;1.90;;;;;;;8.65;46.26;99024.06;5413862;26;20000;-66
2024/04/21 09:01:18;;;;;;;7.05;2.78;;;;;;;8.48;45.71;99026.81;5415271;26;20000;-66
2024/04/21 09:03:48;;;;;;;11.20;3.55;;;;;;;8.49;46.68;99028.41;5424772;26;20015;-66
2024/04/21 09:06:20;;;;;;;9.07;2.28;;;;;;;8.59;46.67;99033.53;5400896;26;20419;-65
2024/04/21 09:08:47;;;;;;;4.97;2.10;;;;;;;8.61;45.16;99025.06;5415394;26;19999;-65
2024/04/21 09:11:13;;;;;;;13.55;2.70;;;;;;;8.73;45.39;99028.69;5413149;26;20000;-65
2024/04/21 09:13:40;;;;;;;4.85;1.70;;;;;;;9.08;44.46;99029.38;5415265;26;20387;-66
2024/04/21 09:16:07;;;;;;;8.05;2.40;;;;;;;9.28;44.58;99021.63;5415448;26;19996;-66
2024/04/21 09:18:34;;;;;;;6.38;2.00;;;;;;;9.73;43.33;99023.81;5414903;26;20008;-66
2024/04/21 09:21:01;;;;;;;8.30;1.80;;;;;;;9.93;43.74;99026.53;5415089;26;20459;-66
2024/04/21 09:23:28;;;;;;;5.47;1.83;;;;;;;10.10;43.92;99012.00;5415062;26;20000;-66
2024/04/21 09:25:56;;;;;;;7.95;1.98;;;;;;;10.15;42.45;99025.41;5442946;26;20000;-65
2024/04/21 09:28:23;;;;;;;4.00;1.80;;;;;;;9.94;42.13;99028.13;5414952;26;20003;-65
2024/04/21 09:30:50;;;;;;;9.85;2.50;;;;;;;10.10;42.43;99022.09;5412807;26;20064;-65
2024/04/21 09:33:17;;;;;;;7.13;2.22;;;;;;;9.98;42.97;99031.78;5417241;26;19999;-66
2024/04/21 09:35:44;;;;;;;5.85;2.10;;;;;;;10.03;42.33;99026.13;5422315;26;20039;-65
2024/04/21 09:38:11;;;;;;;7.25;2.88;;;;;;;10.03;41.80;99033.50;5441795;26;20348;-66
2024/04/21 09:40:38;;;;;;;5.53;1.60;;;;;;;10.14;42.24;99037.44;5472877;26;20000;-65
2024/04/21 09:43:07;;;;;;;6.50;2.00;;;;;;;10.34;41.72;99024.16;5415299;26;20440;-65
2024/04/21 09:45:34;;;;;;;10.25;1.95;;;;;;;10.68;41.42;99026.56;5417688;26;20000;-66
2024/04/21 09:48:01;;;;;;;3.97;1.50;;;;;;;10.89;41.02;99021.84;5446221;26;20539;-65
2024/04/21 09:50:30;;;;;;;5.55;2.08;;;;;;;11.27;41.00;99018.03;5415892;26;20023;-67
2024/04/21 09:52:57;;;;;;;5.82;1.60;;;;;;;11.22;39.44;99021.00;5418436;26;20011;-64
2024/04/21 09:55:24;;;;;;;3.45;1.00;;;;;;;10.80;38.08;99028.56;5416286;26;19996;-66
2024/04/21 09:57:59;;;;;;;6.90;2.78;;;;;;;10.53;38.96;99024.47;5418243;26;20015;-66
2024/04/21 10:00:31;;;;;;;5.63;1.60;;;;;;;10.18;38.74;99027.47;5417757;26;20008;-66
2024/04/21 10:03:02;;;;;;;4.30;3.10;;;;;;;9.91;39.53;99023.34;5418364;26;20009;-65
2024/04/21 10:05:31;;;;;;;4.25;2.45;;;;;;;9.95;40.09;99026.22;5426892;26;20014;-65
2024/04/21 10:07:59;;;;;;;4.60;1.60;;;;;;;10.23;39.74;99015.63;5418059;26;20011;-65
2024/04/21 10:10:29;;;;;;;4.00;1.38;;;;;;;10.42;40.33;99020.59;5417320;26;20004;-65
2024/04/21 10:12:57;;;;;;;2.65;1.50;;;;;;;10.86;40.31;99028.00;5417921;26;20538;-65
2024/04/21 10:15:25;;;;;;;3.95;1.50;;;;;;;11.20;39.13;99021.34;5418035;26;19996;-65
2024/04/21 10:17:55;;;;;;;3.20;1.40;;;;;;;11.35;37.96;99014.41;5415924;26;19999;-66
2024/04/21 10:20:39;;;;;;;3.38;1.50;;;;;;;11.37;36.92;99027.72;5417414;26;20059;-66
2024/04/21 10:23:09;;;;;;;3.70;1.23;;;;;;;11.39;36.80;99020.00;5417656;26;20006;-66
2024/04/21 10:25:38;;;;;;;5.15;1.52;;;;;;;11.72;37.99;99019.88;5417607;26;20386;-65
2024/04/21 10:28:12;;;;;;;7.47;2.03;;;;;;;11.87;37.97;99024.63;5417862;26;20405;-65
2024/04/21 10:30:39;;;;;;;5.65;2.15;;;;;;;11.91;38.50;99020.09;5415799;26;20002;-65
2024/04/21 10:33:09;;;;;;;3.15;1.48;;;;;;;11.77;39.04;99028.63;5417624;26;20440;-66
2024/04/21 10:35:38;;;;;;;6.45;1.90;;;;;;;11.73;38.81;99037.84;5408073;26;19999;-66
2024/04/21 10:38:12;;;;;;;4.82;2.00;;;;;;;11.61;39.65;99033.19;5417679;26;20007;-65
2024/04/21 10:40:46;;;;;;;4.68;1.50;;;;;;;11.54;39.63;99032.97;5417358;26;20408;-66
2024/04/21 10:43:15;;;;;;;3.53;1.70;;;;;;;11.52;38.84;99030.56;5417744;26;20024;-66
2024/04/21 10:45:43;;;;;;;6.57;2.15;;;;;;;11.42;39.39;99041.16;5417983;26;20521;-66
2024/04/21 10:48:10;;;;;;;5.50;2.05;;;;;;;11.11;39.77;99037.00;5418337;26;20436;-65
2024/04/21 10:50:39;;;;;;;4.05;1.52;;;;;;;10.84;39.85;99054.03;5386420;26;20022;-64
2024/04/21 10:53:07;;;;;;;5.55;2.72;;;;;;;10.54;41.32;99042.44;5415802;26;19999;-65
2024/04/21 10:55:35;;;;;;;1.95;1.40;;;;;;;10.42;41.70;99058.75;5415266;26;20011;-66
2024/04/21 10:58:03;;;;;;;2.55;1.35;;;;;;;10.17;41.31;99053.13;5415916;26;19995;-66
2024/04/21 11:00:31;;;;;;;3.20;1.30;;;;;;;10.03;42.46;99047.94;5415200;26;19995;-65
2024/04/21 11:02:58;;;;;;;2.25;1.20;;;;;;;10.17;42.67;99049.59;5417689;26;20459;-65
2024/04/21 11:05:31;;;;;;;5.50;1.27;;;;;;;10.41;42.62;99044.31;5427615;26;20452;-64
2024/04/21 11:07:58;;;;;;;1.50;0.90;;;;;;;10.71;41.41;99039.53;5445586;26;20007;-64
2024/04/21 11:10:26;;;;;;;3.65;1.38;;;;;;;10.86;41.11;99044.34;5416962;26;20076;-65
2024/04/21 11:12:53;;;;;;;3.42;1.20;;;;;;;10.85;41.07;99048.22;5417327;26;20340;-64
2024/04/21 11:15:20;;;;;;;2.55;0.88;;;;;;;10.91;40.25;99041.41;5417289;26;20333;-65
2024/04/21 11:17:59;;;;;;;2.17;1.13;;;;;;;10.93;41.04;99036.41;5418076;26;19999;-64
2024/04/21 11:20:26;;;;;;;3.00;1.13;;;;;;;11.06;40.91;99044.63;5415407;26;20003;-63
2024/04/21 11:22:53;;;;;;;1.85;1.00;;;;;;;10.81;41.21;99043.78;5417241;26;20003;-64
2024/04/21 11:25:21;;;;;;;3.33;1.35;;;;;;;10.45;42.82;99039.00;5415974;26;20006;-64
2024/04/21 11:27:50;;;;;;;2.70;1.58;;;;;;;10.41;44.12;99057.13;5417417;26;20065;-64
2024/04/21 11:30:24;;;;;;;1.77;1.08;;;;;;;10.30;46.05;99063.00;5416529;26;20049;-65
2024/04/21 11:32:57;;;;;;;0.75;0.73;;;;;;;10.39;46.21;99075.75;5414353;26;20010;-65
2024/04/21 11:35:29;;;;;;;1.95;0.80;;;;;;;10.34;47.21;99074.03;5428131;26;20008;-65
2024/04/21 11:37:56;;;;;;;1.65;0.85;;;;;;;10.31;48.27;99067.31;5417171;26;20368;-64
2024/04/21 11:40:22;;;;;;;1.02;0.85;;;;;;;10.51;48.28;99073.88;5416516;26;20003;-66